sensor_id;sensor_type;location;lat;lon;timestamp;temperature;humidity
13684;DHT22;6914;53.552;9.908;2023-05-14T00:00:28;13.60;99.90
13684;DHT22;6914;53.552;9.908;2023-05-14T00:02:56;13.60;99.90
13684;DHT22;6914;53.552;9.908;2023-05-14T00:05:23;13.60;99.90
13684;DHT22;6914;53.552;9.908;2023-05-14T00:07:49;13.60;99.90
13684;DHT22;6914;53.552;9.908;2023-05-14T00:10:17;13.40;99.90
13684;DHT22;6914;53.552;9.908;2023-05-14T00:12:49;13.60;99.90
13684;DHT22;6914;53.552;9.908;2023-05-14T00:15:16;13.50;99.90
13684;DHT22;6914;53.552;9.908;2023-05-14T00:17:44;13.60;99.90
13684;DHT22;6914;53.552;9.908;2023-05-14T00:20:13;13.60;99.90
13684;DHT22;6914;53.552;9.908;2023-05-14T00:22:39;13.50;99.90
13684;DHT22;6914;53.552;9.908;2023-05-14T00:25:07;13.60;99.90
13684;DHT22;6914;53.552;9.908;2023-05-14T00:27:34;13.50;99.90
13684;DHT22;6914;53.552;9.908;2023-05-14T00:30:04;13.40;99.90
13684;DHT22;6914;53.552;9.908;2023-05-14T00:32:31;12.00;99.90
13684;DHT22;6914;53.552;9.908;2023-05-14T00:34:58;13.00;99.90
13684;DHT22;6914;53.552;9.908;2023-05-14T00:37:26;13.20;99.90
13684;DHT22;6914;53.552;9.908;2023-05-14T00:39:53;13.10;99.90
13684;DHT22;6914;53.552;9.908;2023-05-14T00:42:19;12.90;99.90
13684;DHT22;6914;53.552;9.908;2023-05-14T00:44:47;12.80;99.90
13684;DHT22;6914;53.552;9.908;2023-05-14T00:47:14;13.00;99.90
13684;DHT22;6914;53.552;9.908;2023-05-14T00:49:41;12.90;99.90
13684;DHT22;6914;53.552;9.908;2023-05-14T00:52:12;12.90;99.90
13684;DHT22;6914;53.552;9.908;2023-05-14T00:54:41;11.70;99.90
13684;DHT22;6914;53.552;9.908;2023-05-14T00:57:09;12.60;99.90
13684;DHT22;6914;53.552;9.908;2023-05-14T00:59:36;12.70;99.90
13684;DHT22;6914;53.552;9.908;2023-05-14T01:02:05;13.00;99.90
13684;DHT22;6914;53.552;9.908;2023-05-14T01:04:32;12.70;99.90
13684;DHT22;6914;53.552;9.908;2023-05-14T01:07:10;12.30;99.90
13684;DHT22;6914;53.552;9.908;2023-05-14T01:09:43;12.80;99.90
13684;DHT22;6914;53.552;9.908;2023-05-14T01:12:18;12.50;99.90
13684;DHT22;6914;53.552;9.908;2023-05-14T01:14:53;12.60;99.90
13684;DHT22;6914;53.552;9.908;2023-05-14T01:17:21;12.80;99.90
13684;DHT22;6914;53.552;9.908;2023-05-14T01:19:50;12.80;99.90
13684;DHT22;6914;53.552;9.908;2023-05-14T01:22:18;12.70;99.90
13684;DHT22;6914;53.552;9.908;2023-05-14T01:24:45;12.90;99.90
13684;DHT22;6914;53.552;9.908;2023-05-14T01:27:16;12.90;99.90
13684;DHT22;6914;53.552;9.908;2023-05-14T01:29:51;12.30;99.90
13684;DHT22;6914;53.552;9.908;2023-05-14T01:32:19;13.00;99.90
13684;DHT22;6914;53.552;9.908;2023-05-14T01:34:50;13.20;99.90
13684;DHT22;6914;53.552;9.908;2023-05-14T01:37:19;13.10;99.90
13684;DHT22;6914;53.552;9.908;2023-05-14T01:39:49;13.20;99.90
13684;DHT22;6914;53.552;9.908;2023-05-14T01:42:16;13.20;99.90
13684;DHT22;6914;53.552;9.908;2023-05-14T01:44:47;13.30;99.90
13684;DHT22;6914;53.552;9.908;2023-05-14T01:47:13;13.00;99.90
13684;DHT22;6914;53.552;9.908;2023-05-14T01:49:40;13.70;99.90
13684;DHT22;6914;53.552;9.908;2023-05-14T01:52:08;13.20;99.90
13684;DHT22;6914;53.552;9.908;2023-05-14T01:54:36;13.10;99.90
13684;DHT22;6914;53.552;9.908;2023-05-14T01:57:03;13.10;99.90
13684;DHT22;6914;53.552;9.908;2023-05-14T01:59:30;13.20;99.90
13684;DHT22;6914;53.552;9.908;2023-05-14T02:01:57;13.10;99.90
13684;DHT22;6914;53.552;9.908;2023-05-14T02:04:25;13.00;99.90
13684;DHT22;6914;53.552;9.908;2023-05-14T02:06:51;13.00;99.90
13684;DHT22;6914;53.552;9.908;2023-05-14T02:09:18;13.00;99.90
13684;DHT22;6914;53.552;9.908;2023-05-14T02:11:49;14.00;99.90
13684;DHT22;6914;53.552;9.908;2023-05-14T02:14:16;12.80;99.90
13684;DHT22;6914;53.552;9.908;2023-05-14T02:16:43;12.80;99.90
13684;DHT22;6914;53.552;9.908;2023-05-14T02:19:10;13.40;99.90
13684;DHT22;6914;53.552;9.908;2023-05-14T02:21:37;12.70;99.90
13684;DHT22;6914;53.552;9.908;2023-05-14T02:24:04;12.60;99.90
13684;DHT22;6914;53.552;9.908;2023-05-14T02:26:31;12.80;99.90
13684;DHT22;6914;53.552;9.908;2023-05-14T02:28:59;12.70;99.90
13684;DHT22;6914;53.552;9.908;2023-05-14T02:31:26;12.60;99.90
13684;DHT22;6914;53.552;9.908;2023-05-14T02:33:53;12.60;99.90
13684;DHT22;6914;53.552;9.908;2023-05-14T02:36:20;12.60;99.90
13684;DHT22;6914;53.552;9.908;2023-05-14T02:38:49;12.50;99.90
13684;DHT22;6914;53.552;9.908;2023-05-14T02:41:15;12.50;99.90
13684;DHT22;6914;53.552;9.908;2023-05-14T02:43:42;12.50;99.90
13684;DHT22;6914;53.552;9.908;2023-05-14T02:46:10;12.50;99.90
13684;DHT22;6914;53.552;9.908;2023-05-14T02:48:37;12.50;99.90
13684;DHT22;6914;53.552;9.908;2023-05-14T02:51:04;12.70;99.90
13684;DHT22;6914;53.552;9.908;2023-05-14T02:53:31;12.50;99.90
13684;DHT22;6914;53.552;9.908;2023-05-14T02:56:00;12.40;99.90
13684;DHT22;6914;53.552;9.908;2023-05-14T02:58:27;12.10;99.90
13684;DHT22;6914;53.552;9.908;2023-05-14T03:00:54;12.30;99.90
13684;DHT22;6914;53.552;9.908;2023-05-14T03:03:22;12.20;99.90
13684;DHT22;6914;53.552;9.908;2023-05-14T03:05:49;12.30;99.90
13684;DHT22;6914;53.552;9.908;2023-05-14T03:08:16;12.20;99.90
13684;DHT22;6914;53.552;9.908;2023-05-14T03:10:43;12.50;99.90
13684;DHT22;6914;53.552;9.908;2023-05-14T03:13:10;12.50;99.90
13684;DHT22;6914;53.552;9.908;2023-05-14T03:15:37;12.00;99.90
13684;DHT22;6914;53.552;9.908;2023-05-14T03:18:04;12.00;99.90
13684;DHT22;6914;53.552;9.908;2023-05-14T03:20:33;12.20;99.90
13684;DHT22;6914;53.552;9.908;2023-05-14T03:23:00;11.90;99.90
13684;DHT22;6914;53.552;9.908;2023-05-14T03:25:27;12.00;99.90
13684;DHT22;6914;53.552;9.908;2023-05-14T03:27:54;11.80;99.90
13684;DHT22;6914;53.552;9.908;2023-05-14T03:30:21;12.80;99.90
13684;DHT22;6914;53.552;9.908;2023-05-14T03:32:49;11.90;99.90
13684;DHT22;6914;53.552;9.908;2023-05-14T03:35:16;11.90;99.90
13684;DHT22;6914;53.552;9.908;2023-05-14T03:37:45;11.80;99.90
13684;DHT22;6914;53.552;9.908;2023-05-14T03:40:11;12.10;99.90
13684;DHT22;6914;53.552;9.908;2023-05-14T03:42:38;12.00;99.90
13684;DHT22;6914;53.552;9.908;2023-05-14T03:45:06;11.70;99.90
13684;DHT22;6914;53.552;9.908;2023-05-14T03:47:33;11.80;99.90
13684;DHT22;6914;53.552;9.908;2023-05-14T03:50:00;11.70;99.90
13684;DHT22;6914;53.552;9.908;2023-05-14T03:52:27;11.50;99.90
13684;DHT22;6914;53.552;9.908;2023-05-14T03:54:55;11.80;99.90
13684;DHT22;6914;53.552;9.908;2023-05-14T03:57:22;11.80;99.90
13684;DHT22;6914;53.552;9.908;2023-05-14T03:59:51;12.00;99.90
13684;DHT22;6914;53.552;9.908;2023-05-14T04:02:18;11.90;99.90
13684;DHT22;6914;53.552;9.908;2023-05-14T04:04:44;12.00;99.90
13684;DHT22;6914;53.552;9.908;2023-05-14T04:07:12;11.90;99.90
13684;DHT22;6914;53.552;9.908;2023-05-14T04:09:39;12.00;99.90
13684;DHT22;6914;53.552;9.908;2023-05-14T04:12:07;12.00;99.90
13684;DHT22;6914;53.552;9.908;2023-05-14T04:14:34;12.00;99.90
13684;DHT22;6914;53.552;9.908;2023-05-14T04:17:01;11.90;99.90
13684;DHT22;6914;53.552;9.908;2023-05-14T04:19:28;12.20;99.90
13684;DHT22;6914;53.552;9.908;2023-05-14T04:21:54;12.60;99.90
13684;DHT22;6914;53.552;9.908;2023-05-14T04:24:21;12.00;99.90
13684;DHT22;6914;53.552;9.908;2023-05-14T04:26:48;11.90;99.90
13684;DHT22;6914;53.552;9.908;2023-05-14T04:29:19;12.30;99.90
13684;DHT22;6914;53.552;9.908;2023-05-14T04:31:46;12.20;99.90
13684;DHT22;6914;53.552;9.908;2023-05-14T04:34:12;12.30;99.90
13684;DHT22;6914;53.552;9.908;2023-05-14T04:36:39;12.00;99.90
13684;DHT22;6914;53.552;9.908;2023-05-14T04:39:06;12.30;99.90
13684;DHT22;6914;53.552;9.908;2023-05-14T04:41:34;11.70;99.90
13684;DHT22;6914;53.552;9.908;2023-05-14T04:44:02;12.20;99.90
13684;DHT22;6914;53.552;9.908;2023-05-14T04:46:30;11.90;99.90
13684;DHT22;6914;53.552;9.908;2023-05-14T04:48:58;12.30;99.90
13684;DHT22;6914;53.552;9.908;2023-05-14T04:51:25;12.60;99.90
13684;DHT22;6914;53.552;9.908;2023-05-14T04:53:53;12.60;99.90
13684;DHT22;6914;53.552;9.908;2023-05-14T04:56:20;12.60;99.90
13684;DHT22;6914;53.552;9.908;2023-05-14T04:58:46;13.80;99.90
13684;DHT22;6914;53.552;9.908;2023-05-14T05:01:13;12.80;99.90
13684;DHT22;6914;53.552;9.908;2023-05-14T05:03:41;12.50;99.90
13684;DHT22;6914;53.552;9.908;2023-05-14T05:06:08;12.70;99.90
13684;DHT22;6914;53.552;9.908;2023-05-14T05:08:35;12.70;99.90
13684;DHT22;6914;53.552;9.908;2023-05-14T05:11:03;12.50;99.90
13684;DHT22;6914;53.552;9.908;2023-05-14T05:13:29;12.80;99.90
13684;DHT22;6914;53.552;9.908;2023-05-14T05:15:56;12.70;99.90
13684;DHT22;6914;53.552;9.908;2023-05-14T05:18:23;12.60;99.90
13684;DHT22;6914;53.552;9.908;2023-05-14T05:20:52;12.70;99.90
13684;DHT22;6914;53.552;9.908;2023-05-14T05:23:20;12.40;99.90
13684;DHT22;6914;53.552;9.908;2023-05-14T05:25:49;12.90;99.90
13684;DHT22;6914;53.552;9.908;2023-05-14T05:28:19;12.90;99.90
13684;DHT22;6914;53.552;9.908;2023-05-14T05:30:46;12.80;99.90
13684;DHT22;6914;53.552;9.908;2023-05-14T05:33:12;12.80;99.90
13684;DHT22;6914;53.552;9.908;2023-05-14T05:35:39;12.90;99.90
13684;DHT22;6914;53.552;9.908;2023-05-14T05:38:08;13.00;99.90
13684;DHT22;6914;53.552;9.908;2023-05-14T05:40:35;13.00;99.90
13684;DHT22;6914;53.552;9.908;2023-05-14T05:43:01;13.10;99.90
13684;DHT22;6914;53.552;9.908;2023-05-14T05:45:28;13.10;99.90
13684;DHT22;6914;53.552;9.908;2023-05-14T05:47:55;13.20;99.90
13684;DHT22;6914;53.552;9.908;2023-05-14T05:50:23;13.20;99.90
13684;DHT22;6914;53.552;9.908;2023-05-14T05:52:51;13.20;99.90
13684;DHT22;6914;53.552;9.908;2023-05-14T05:55:21;13.50;99.90
13684;DHT22;6914;53.552;9.908;2023-05-14T05:57:49;13.60;99.90
13684;DHT22;6914;53.552;9.908;2023-05-14T06:00:16;13.50;99.90
13684;DHT22;6914;53.552;9.908;2023-05-14T06:02:43;13.70;99.90
13684;DHT22;6914;53.552;9.908;2023-05-14T06:05:10;13.60;99.90
13684;DHT22;6914;53.552;9.908;2023-05-14T06:07:37;13.80;99.90
13684;DHT22;6914;53.552;9.908;2023-05-14T06:10:05;14.00;99.90
13684;DHT22;6914;53.552;9.908;2023-05-14T06:12:33;14.20;99.90
13684;DHT22;6914;53.552;9.908;2023-05-14T06:15:00;14.30;99.90
13684;DHT22;6914;53.552;9.908;2023-05-14T06:17:26;14.60;99.90
13684;DHT22;6914;53.552;9.908;2023-05-14T06:19:53;14.90;99.90
13684;DHT22;6914;53.552;9.908;2023-05-14T06:22:20;14.20;99.90
13684;DHT22;6914;53.552;9.908;2023-05-14T06:24:47;14.00;99.90
13684;DHT22;6914;53.552;9.908;2023-05-14T06:27:14;13.90;99.90
13684;DHT22;6914;53.552;9.908;2023-05-14T06:29:42;14.50;99.90
13684;DHT22;6914;53.552;9.908;2023-05-14T06:32:09;14.40;99.90
13684;DHT22;6914;53.552;9.908;2023-05-14T06:34:38;14.50;99.90
13684;DHT22;6914;53.552;9.908;2023-05-14T06:37:05;14.80;99.90
13684;DHT22;6914;53.552;9.908;2023-05-14T06:39:32;14.70;99.90
13684;DHT22;6914;53.552;9.908;2023-05-14T06:41:58;14.70;99.90
13684;DHT22;6914;53.552;9.908;2023-05-14T06:44:25;14.80;99.90
13684;DHT22;6914;53.552;9.908;2023-05-14T06:46:55;15.20;99.90
13684;DHT22;6914;53.552;9.908;2023-05-14T06:49:22;15.10;99.90
13684;DHT22;6914;53.552;9.908;2023-05-14T06:51:49;14.90;99.90
13684;DHT22;6914;53.552;9.908;2023-05-14T06:54:19;15.10;99.90
13684;DHT22;6914;53.552;9.908;2023-05-14T06:56:46;15.20;99.90
13684;DHT22;6914;53.552;9.908;2023-05-14T06:59:13;15.40;99.90
13684;DHT22;6914;53.552;9.908;2023-05-14T07:01:40;15.20;99.90
13684;DHT22;6914;53.552;9.908;2023-05-14T07:04:08;15.60;99.90
13684;DHT22;6914;53.552;9.908;2023-05-14T07:06:35;15.70;99.90
13684;DHT22;6914;53.552;9.908;2023-05-14T07:09:01;15.60;99.90
13684;DHT22;6914;53.552;9.908;2023-05-14T07:11:28;16.70;99.90
13684;DHT22;6914;53.552;9.908;2023-05-14T07:13:55;15.90;99.90
13684;DHT22;6914;53.552;9.908;2023-05-14T07:16:22;16.20;99.90
13684;DHT22;6914;53.552;9.908;2023-05-14T07:18:49;16.00;99.90
13684;DHT22;6914;53.552;9.908;2023-05-14T07:21:18;16.10;99.90
13684;DHT22;6914;53.552;9.908;2023-05-14T07:23:44;16.40;99.90
13684;DHT22;6914;53.552;9.908;2023-05-14T07:26:11;16.40;99.90
13684;DHT22;6914;53.552;9.908;2023-05-14T07:28:38;16.50;99.90
13684;DHT22;6914;53.552;9.908;2023-05-14T07:31:05;16.60;99.90
13684;DHT22;6914;53.552;9.908;2023-05-14T07:33:33;16.80;99.90
13684;DHT22;6914;53.552;9.908;2023-05-14T07:36:00;16.90;99.90
13684;DHT22;6914;53.552;9.908;2023-05-14T07:38:29;17.10;99.90
13684;DHT22;6914;53.552;9.908;2023-05-14T07:40:56;17.00;99.90
13684;DHT22;6914;53.552;9.908;2023-05-14T07:43:23;17.10;99.90
13684;DHT22;6914;53.552;9.908;2023-05-14T07:45:52;17.70;99.90
13684;DHT22;6914;53.552;9.908;2023-05-14T07:48:21;17.40;99.90
13684;DHT22;6914;53.552;9.908;2023-05-14T07:50:48;17.50;99.90
13684;DHT22;6914;53.552;9.908;2023-05-14T07:53:16;17.50;99.90
13684;DHT22;6914;53.552;9.908;2023-05-14T07:55:45;18.30;99.90
13684;DHT22;6914;53.552;9.908;2023-05-14T07:58:12;17.60;99.90
13684;DHT22;6914;53.552;9.908;2023-05-14T08:00:39;17.60;99.90
13684;DHT22;6914;53.552;9.908;2023-05-14T08:03:06;17.70;99.90
13684;DHT22;6914;53.552;9.908;2023-05-14T08:05:33;18.00;99.90
13684;DHT22;6914;53.552;9.908;2023-05-14T08:07:59;18.00;99.90
13684;DHT22;6914;53.552;9.908;2023-05-14T08:10:27;18.10;97.80
13684;DHT22;6914;53.552;9.908;2023-05-14T08:12:56;18.30;98.10
13684;DHT22;6914;53.552;9.908;2023-05-14T08:15:23;18.20;96.70
13684;DHT22;6914;53.552;9.908;2023-05-14T08:17:50;18.50;94.40
13684;DHT22;6914;53.552;9.908;2023-05-14T08:20:19;18.40;92.30
13684;DHT22;6914;53.552;9.908;2023-05-14T08:22:46;18.80;93.90
13684;DHT22;6914;53.552;9.908;2023-05-14T08:25:13;18.50;92.20
13684;DHT22;6914;53.552;9.908;2023-05-14T08:27:40;19.40;90.30
13684;DHT22;6914;53.552;9.908;2023-05-14T08:30:09;18.90;91.10
13684;DHT22;6914;53.552;9.908;2023-05-14T08:32:36;19.10;87.20
13684;DHT22;6914;53.552;9.908;2023-05-14T08:35:04;19.20;89.30
13684;DHT22;6914;53.552;9.908;2023-05-14T08:37:31;19.10;87.60
13684;DHT22;6914;53.552;9.908;2023-05-14T08:39:58;19.30;88.50
13684;DHT22;6914;53.552;9.908;2023-05-14T08:42:25;18.60;88.60
13684;DHT22;6914;53.552;9.908;2023-05-14T08:44:59;19.20;87.00
13684;DHT22;6914;53.552;9.908;2023-05-14T08:47:29;19.70;87.90
13684;DHT22;6914;53.552;9.908;2023-05-14T08:50:01;19.50;86.10
13684;DHT22;6914;53.552;9.908;2023-05-14T08:52:29;19.40;85.10
13684;DHT22;6914;53.552;9.908;2023-05-14T08:55:01;19.50;85.90
13684;DHT22;6914;53.552;9.908;2023-05-14T08:57:29;19.50;83.60
13684;DHT22;6914;53.552;9.908;2023-05-14T08:59:58;19.90;85.50
13684;DHT22;6914;53.552;9.908;2023-05-14T09:02:28;19.50;85.20
13684;DHT22;6914;53.552;9.908;2023-05-14T09:04:58;20.30;83.60
13684;DHT22;6914;53.552;9.908;2023-05-14T09:07:25;20.20;81.50
13684;DHT22;6914;53.552;9.908;2023-05-14T09:09:53;20.40;82.30
13684;DHT22;6914;53.552;9.908;2023-05-14T09:12:22;20.30;82.00
13684;DHT22;6914;53.552;9.908;2023-05-14T09:14:50;20.60;82.50
13684;DHT22;6914;53.552;9.908;2023-05-14T09:17:17;20.30;81.90
13684;DHT22;6914;53.552;9.908;2023-05-14T09:19:46;20.60;80.20
13684;DHT22;6914;53.552;9.908;2023-05-14T09:22:14;20.50;77.20
13684;DHT22;6914;53.552;9.908;2023-05-14T09:24:42;20.50;77.90
13684;DHT22;6914;53.552;9.908;2023-05-14T09:27:17;21.00;79.30
13684;DHT22;6914;53.552;9.908;2023-05-14T09:29:46;21.00;78.10
13684;DHT22;6914;53.552;9.908;2023-05-14T09:32:13;21.00;79.10
13684;DHT22;6914;53.552;9.908;2023-05-14T09:34:40;21.00;75.50
13684;DHT22;6914;53.552;9.908;2023-05-14T09:37:08;21.40;77.80
13684;DHT22;6914;53.552;9.908;2023-05-14T09:39:36;21.70;77.30
13684;DHT22;6914;53.552;9.908;2023-05-14T09:42:04;21.90;77.70
13684;DHT22;6914;53.552;9.908;2023-05-14T09:44:30;21.90;74.80
13684;DHT22;6914;53.552;9.908;2023-05-14T09:46:57;21.80;75.80
13684;DHT22;6914;53.552;9.908;2023-05-14T09:49:24;21.90;75.30
13684;DHT22;6914;53.552;9.908;2023-05-14T09:51:52;22.30;75.30
13684;DHT22;6914;53.552;9.908;2023-05-14T09:54:20;23.40;74.60
13684;DHT22;6914;53.552;9.908;2023-05-14T09:56:47;22.90;70.30
13684;DHT22;6914;53.552;9.908;2023-05-14T09:59:14;22.50;71.30
13684;DHT22;6914;53.552;9.908;2023-05-14T10:01:42;22.40;69.10
13684;DHT22;6914;53.552;9.908;2023-05-14T10:04:09;23.30;71.10
13684;DHT22;6914;53.552;9.908;2023-05-14T10:06:38;24.40;70.60
13684;DHT22;6914;53.552;9.908;2023-05-14T10:09:10;23.30;69.10
13684;DHT22;6914;53.552;9.908;2023-05-14T10:11:43;23.20;68.30
13684;DHT22;6914;53.552;9.908;2023-05-14T10:14:19;22.60;68.00
13684;DHT22;6914;53.552;9.908;2023-05-14T10:16:47;22.60;70.10
13684;DHT22;6914;53.552;9.908;2023-05-14T10:19:16;23.10;69.00
13684;DHT22;6914;53.552;9.908;2023-05-14T10:21:46;22.80;69.10
13684;DHT22;6914;53.552;9.908;2023-05-14T10:24:14;22.90;69.10
13684;DHT22;6914;53.552;9.908;2023-05-14T10:26:44;22.40;69.90
13684;DHT22;6914;53.552;9.908;2023-05-14T10:29:12;22.30;70.60
13684;DHT22;6914;53.552;9.908;2023-05-14T10:31:49;23.00;71.60
13684;DHT22;6914;53.552;9.908;2023-05-14T10:34:35;21.90;69.50
13684;DHT22;6914;53.552;9.908;2023-05-14T10:37:04;22.00;70.30
13684;DHT22;6914;53.552;9.908;2023-05-14T10:39:45;22.60;71.00
13684;DHT22;6914;53.552;9.908;2023-05-14T10:42:16;23.20;71.60
13684;DHT22;6914;53.552;9.908;2023-05-14T10:44:49;23.10;68.00
13684;DHT22;6914;53.552;9.908;2023-05-14T10:47:17;23.00;69.00
13684;DHT22;6914;53.552;9.908;2023-05-14T10:49:45;22.80;69.70
13684;DHT22;6914;53.552;9.908;2023-05-14T10:52:16;21.80;68.20
13684;DHT22;6914;53.552;9.908;2023-05-14T10:54:51;23.40;68.30
13684;DHT22;6914;53.552;9.908;2023-05-14T10:57:22;24.50;68.40
13684;DHT22;6914;53.552;9.908;2023-05-14T10:59:51;24.10;66.20
13684;DHT22;6914;53.552;9.908;2023-05-14T11:02:22;24.70;65.80
13684;DHT22;6914;53.552;9.908;2023-05-14T11:04:52;25.30;64.60
13684;DHT22;6914;53.552;9.908;2023-05-14T11:07:27;26.40;63.30
13684;DHT22;6914;53.552;9.908;2023-05-14T11:10:02;26.80;64.40
13684;DHT22;6914;53.552;9.908;2023-05-14T11:12:32;25.50;62.40
13684;DHT22;6914;53.552;9.908;2023-05-14T11:15:01;25.00;63.40
13684;DHT22;6914;53.552;9.908;2023-05-14T11:17:30;23.90;65.20
13684;DHT22;6914;53.552;9.908;2023-05-14T11:19:58;23.70;66.90
13684;DHT22;6914;53.552;9.908;2023-05-14T11:22:25;23.90;67.30
13684;DHT22;6914;53.552;9.908;2023-05-14T11:25:01;23.40;67.30
13684;DHT22;6914;53.552;9.908;2023-05-14T11:27:28;23.50;67.30
13684;DHT22;6914;53.552;9.908;2023-05-14T11:30:03;23.90;68.40
13684;DHT22;6914;53.552;9.908;2023-05-14T11:32:31;24.30;67.50
13684;DHT22;6914;53.552;9.908;2023-05-14T11:34:59;24.70;65.50
13684;DHT22;6914;53.552;9.908;2023-05-14T11:37:27;24.60;66.30
13684;DHT22;6914;53.552;9.908;2023-05-14T11:39:58;24.30;66.40
13684;DHT22;6914;53.552;9.908;2023-05-14T11:42:25;23.20;67.20
13684;DHT22;6914;53.552;9.908;2023-05-14T11:44:52;24.10;67.90
13684;DHT22;6914;53.552;9.908;2023-05-14T11:47:22;24.40;68.10
13684;DHT22;6914;53.552;9.908;2023-05-14T11:49:49;25.00;67.70
13684;DHT22;6914;53.552;9.908;2023-05-14T11:52:16;26.00;68.70
13684;DHT22;6914;53.552;9.908;2023-05-14T11:54:46;26.50;65.30
13684;DHT22;6914;53.552;9.908;2023-05-14T11:57:16;26.00;64.30
13684;DHT22;6914;53.552;9.908;2023-05-14T11:59:54;26.00;65.10
13684;DHT22;6914;53.552;9.908;2023-05-14T12:02:26;26.30;66.80
13684;DHT22;6914;53.552;9.908;2023-05-14T12:04:53;24.80;64.60
13684;DHT22;6914;53.552;9.908;2023-05-14T12:07:20;26.00;64.20
13684;DHT22;6914;53.552;9.908;2023-05-14T12:09:48;26.10;63.20
13684;DHT22;6914;53.552;9.908;2023-05-14T12:12:17;27.10;63.90
13684;DHT22;6914;53.552;9.908;2023-05-14T12:14:44;26.20;62.90
13684;DHT22;6914;53.552;9.908;2023-05-14T12:17:14;26.40;64.30
13684;DHT22;6914;53.552;9.908;2023-05-14T12:19:45;27.30;62.90
13684;DHT22;6914;53.552;9.908;2023-05-14T12:22:14;26.20;63.00
13684;DHT22;6914;53.552;9.908;2023-05-14T12:24:42;26.50;62.00
13684;DHT22;6914;53.552;9.908;2023-05-14T12:27:10;26.50;60.60
13684;DHT22;6914;53.552;9.908;2023-05-14T12:29:37;25.50;61.00
13684;DHT22;6914;53.552;9.908;2023-05-14T12:32:07;25.00;63.60
13684;DHT22;6914;53.552;9.908;2023-05-14T12:34:36;25.50;62.70
13684;DHT22;6914;53.552;9.908;2023-05-14T12:37:04;26.10;62.20
13684;DHT22;6914;53.552;9.908;2023-05-14T12:39:32;25.90;62.90
13684;DHT22;6914;53.552;9.908;2023-05-14T12:42:00;26.20;62.50
13684;DHT22;6914;53.552;9.908;2023-05-14T12:44:27;25.50;63.10
13684;DHT22;6914;53.552;9.908;2023-05-14T12:46:56;25.70;63.40
13684;DHT22;6914;53.552;9.908;2023-05-14T12:49:25;25.60;64.50
13684;DHT22;6914;53.552;9.908;2023-05-14T12:51:51;25.40;62.90
13684;DHT22;6914;53.552;9.908;2023-05-14T12:54:20;24.90;62.90
13684;DHT22;6914;53.552;9.908;2023-05-14T12:56:47;25.40;63.00
13684;DHT22;6914;53.552;9.908;2023-05-14T12:59:13;25.20;62.40
13684;DHT22;6914;53.552;9.908;2023-05-14T13:01:40;25.00;62.90
13684;DHT22;6914;53.552;9.908;2023-05-14T13:04:08;24.80;62.70
13684;DHT22;6914;53.552;9.908;2023-05-14T13:06:37;24.50;62.10
13684;DHT22;6914;53.552;9.908;2023-05-14T13:09:04;24.30;63.00
13684;DHT22;6914;53.552;9.908;2023-05-14T13:11:32;24.00;63.80
13684;DHT22;6914;53.552;9.908;2023-05-14T13:14:00;24.20;63.90
13684;DHT22;6914;53.552;9.908;2023-05-14T13:16:28;24.80;63.60
13684;DHT22;6914;53.552;9.908;2023-05-14T13:19:01;24.30;61.90
13684;DHT22;6914;53.552;9.908;2023-05-14T13:21:28;24.50;63.40
13684;DHT22;6914;53.552;9.908;2023-05-14T13:23:56;25.10;65.80
13684;DHT22;6914;53.552;9.908;2023-05-14T13:26:25;24.70;62.90
13684;DHT22;6914;53.552;9.908;2023-05-14T13:28:54;25.00;61.80
13684;DHT22;6914;53.552;9.908;2023-05-14T13:31:23;24.00;61.40
13684;DHT22;6914;53.552;9.908;2023-05-14T13:33:50;23.70;62.70
13684;DHT22;6914;53.552;9.908;2023-05-14T13:36:16;23.70;65.40
13684;DHT22;6914;53.552;9.908;2023-05-14T13:38:43;23.50;65.40
13684;DHT22;6914;53.552;9.908;2023-05-14T13:41:11;23.40;64.70
13684;DHT22;6914;53.552;9.908;2023-05-14T13:43:38;23.80;64.70
13684;DHT22;6914;53.552;9.908;2023-05-14T13:46:06;23.50;64.30
13684;DHT22;6914;53.552;9.908;2023-05-14T13:48:33;24.10;64.00
13684;DHT22;6914;53.552;9.908;2023-05-14T13:51:01;23.50;62.60
13684;DHT22;6914;53.552;9.908;2023-05-14T13:53:28;23.20;62.60
13684;DHT22;6914;53.552;9.908;2023-05-14T13:55:55;23.60;64.20
13684;DHT22;6914;53.552;9.908;2023-05-14T13:58:25;23.60;64.10
13684;DHT22;6914;53.552;9.908;2023-05-14T14:00:52;24.00;65.20
13684;DHT22;6914;53.552;9.908;2023-05-14T14:03:23;24.10;63.60
13684;DHT22;6914;53.552;9.908;2023-05-14T14:05:51;24.00;64.00
13684;DHT22;6914;53.552;9.908;2023-05-14T14:08:18;23.60;64.40
13684;DHT22;6914;53.552;9.908;2023-05-14T14:10:45;23.60;62.30
13684;DHT22;6914;53.552;9.908;2023-05-14T14:13:13;23.60;64.30
13684;DHT22;6914;53.552;9.908;2023-05-14T14:15:40;23.30;63.00
13684;DHT22;6914;53.552;9.908;2023-05-14T14:18:09;23.20;61.70
13684;DHT22;6914;53.552;9.908;2023-05-14T14:20:37;23.40;62.50
13684;DHT22;6914;53.552;9.908;2023-05-14T14:23:06;23.90;62.20
13684;DHT22;6914;53.552;9.908;2023-05-14T14:25:33;23.70;62.00
13684;DHT22;6914;53.552;9.908;2023-05-14T14:27:59;23.70;61.60
13684;DHT22;6914;53.552;9.908;2023-05-14T14:30:26;23.80;60.80
13684;DHT22;6914;53.552;9.908;2023-05-14T14:32:54;23.00;59.80
13684;DHT22;6914;53.552;9.908;2023-05-14T14:35:25;23.80;61.00
13684;DHT22;6914;53.552;9.908;2023-05-14T14:37:54;23.50;61.90
13684;DHT22;6914;53.552;9.908;2023-05-14T14:40:21;23.60;62.40
13684;DHT22;6914;53.552;9.908;2023-05-14T14:42:49;23.50;60.90
13684;DHT22;6914;53.552;9.908;2023-05-14T14:45:15;23.80;61.80
13684;DHT22;6914;53.552;9.908;2023-05-14T14:47:43;23.70;62.20
13684;DHT22;6914;53.552;9.908;2023-05-14T14:50:11;23.50;61.00
13684;DHT22;6914;53.552;9.908;2023-05-14T14:52:38;23.60;62.00
13684;DHT22;6914;53.552;9.908;2023-05-14T14:55:09;21.90;60.40
13684;DHT22;6914;53.552;9.908;2023-05-14T14:57:37;23.60;61.20
13684;DHT22;6914;53.552;9.908;2023-05-14T15:00:05;23.60;61.10
13684;DHT22;6914;53.552;9.908;2023-05-14T15:02:32;23.70;62.20
13684;DHT22;6914;53.552;9.908;2023-05-14T15:04:59;23.50;63.30
13684;DHT22;6914;53.552;9.908;2023-05-14T15:07:30;23.50;61.00
13684;DHT22;6914;53.552;9.908;2023-05-14T15:10:00;23.40;61.70
13684;DHT22;6914;53.552;9.908;2023-05-14T15:12:28;23.80;63.70
13684;DHT22;6914;53.552;9.908;2023-05-14T15:14:55;23.20;63.50
13684;DHT22;6914;53.552;9.908;2023-05-14T15:17:26;23.30;62.90
13684;DHT22;6914;53.552;9.908;2023-05-14T15:19:59;23.50;63.80
13684;DHT22;6914;53.552;9.908;2023-05-14T15:22:26;23.00;61.80
13684;DHT22;6914;53.552;9.908;2023-05-14T15:24:53;23.60;63.30
13684;DHT22;6914;53.552;9.908;2023-05-14T15:27:20;23.10;63.10
13684;DHT22;6914;53.552;9.908;2023-05-14T15:29:49;23.40;63.90
13684;DHT22;6914;53.552;9.908;2023-05-14T15:32:16;23.10;62.60
13684;DHT22;6914;53.552;9.908;2023-05-14T15:34:42;23.00;63.10
13684;DHT22;6914;53.552;9.908;2023-05-14T15:37:09;23.20;63.40
13684;DHT22;6914;53.552;9.908;2023-05-14T15:39:36;22.90;62.40
13684;DHT22;6914;53.552;9.908;2023-05-14T15:42:03;22.90;63.80
13684;DHT22;6914;53.552;9.908;2023-05-14T15:44:30;22.90;63.00
13684;DHT22;6914;53.552;9.908;2023-05-14T15:47:01;22.70;64.30
13684;DHT22;6914;53.552;9.908;2023-05-14T15:49:28;22.70;63.10